sensor_id;sensor_type;location;lat;lon;timestamp;temperature;humidity
17296;DHT22;8766;51.480;6.872;2023-04-24T00:00:40;14.00;61.40
17296;DHT22;8766;51.480;6.872;2023-04-24T00:03:07;13.90;61.40
17296;DHT22;8766;51.480;6.872;2023-04-24T00:05:34;13.90;61.40
17296;DHT22;8766;51.480;6.872;2023-04-24T00:08:01;13.90;61.40
17296;DHT22;8766;51.480;6.872;2023-04-24T00:10:29;14.00;61.50
17296;DHT22;8766;51.480;6.872;2023-04-24T00:12:56;14.00;61.40
17296;DHT22;8766;51.480;6.872;2023-04-24T00:15:23;13.90;61.30
17296;DHT22;8766;51.480;6.872;2023-04-24T00:17:50;14.00;61.40
17296;DHT22;8766;51.480;6.872;2023-04-24T00:20:18;13.90;61.30
17296;DHT22;8766;51.480;6.872;2023-04-24T00:22:45;13.90;61.20
17296;DHT22;8766;51.480;6.872;2023-04-24T00:25:12;13.90;61.30
17296;DHT22;8766;51.480;6.872;2023-04-24T00:27:41;13.90;61.30
17296;DHT22;8766;51.480;6.872;2023-04-24T00:30:08;13.90;61.30
17296;DHT22;8766;51.480;6.872;2023-04-24T00:32:35;13.90;61.20
17296;DHT22;8766;51.480;6.872;2023-04-24T00:35:02;13.90;61.20
17296;DHT22;8766;51.480;6.872;2023-04-24T00:37:29;13.90;61.30
17296;DHT22;8766;51.480;6.872;2023-04-24T00:39:56;13.90;61.20
17296;DHT22;8766;51.480;6.872;2023-04-24T00:42:23;13.90;61.90
17296;DHT22;8766;51.480;6.872;2023-04-24T00:44:52;13.90;61.20
17296;DHT22;8766;51.480;6.872;2023-04-24T00:47:19;13.90;61.20
17296;DHT22;8766;51.480;6.872;2023-04-24T00:49:47;13.90;61.20
17296;DHT22;8766;51.480;6.872;2023-04-24T00:52:14;13.90;61.20
17296;DHT22;8766;51.480;6.872;2023-04-24T00:54:43;13.90;61.30
17296;DHT22;8766;51.480;6.872;2023-04-24T00:57:10;13.80;61.40
17296;DHT22;8766;51.480;6.872;2023-04-24T00:59:37;13.70;61.50
17296;DHT22;8766;51.480;6.872;2023-04-24T01:02:08;13.70;61.70
17296;DHT22;8766;51.480;6.872;2023-04-24T01:04:36;13.70;61.60
17296;DHT22;8766;51.480;6.872;2023-04-24T01:07:04;13.70;61.60
17296;DHT22;8766;51.480;6.872;2023-04-24T01:09:36;13.70;61.60
17296;DHT22;8766;51.480;6.872;2023-04-24T01:12:03;13.60;61.60
17296;DHT22;8766;51.480;6.872;2023-04-24T01:14:31;13.60;61.70
17296;DHT22;8766;51.480;6.872;2023-04-24T01:16:58;13.50;61.80
17296;DHT22;8766;51.480;6.872;2023-04-24T01:19:27;13.40;61.90
17296;DHT22;8766;51.480;6.872;2023-04-24T01:21:58;13.40;62.00
17296;DHT22;8766;51.480;6.872;2023-04-24T01:24:26;13.30;62.20
17296;DHT22;8766;51.480;6.872;2023-04-24T01:26:53;13.30;62.30
17296;DHT22;8766;51.480;6.872;2023-04-24T01:29:20;13.20;62.30
17296;DHT22;8766;51.480;6.872;2023-04-24T01:31:47;13.20;62.50
17296;DHT22;8766;51.480;6.872;2023-04-24T01:34:14;13.10;63.10
17296;DHT22;8766;51.480;6.872;2023-04-24T01:36:43;13.00;62.50
17296;DHT22;8766;51.480;6.872;2023-04-24T01:39:12;13.00;62.70
17296;DHT22;8766;51.480;6.872;2023-04-24T01:41:40;12.90;62.70
17296;DHT22;8766;51.480;6.872;2023-04-24T01:44:07;12.90;62.80
17296;DHT22;8766;51.480;6.872;2023-04-24T01:46:34;12.90;62.80
17296;DHT22;8766;51.480;6.872;2023-04-24T01:49:02;12.90;62.80
17296;DHT22;8766;51.480;6.872;2023-04-24T01:51:29;12.90;62.80
17296;DHT22;8766;51.480;6.872;2023-04-24T01:53:55;12.90;62.70
17296;DHT22;8766;51.480;6.872;2023-04-24T01:56:22;12.90;62.60
17296;DHT22;8766;51.480;6.872;2023-04-24T01:58:52;13.00;62.60
17296;DHT22;8766;51.480;6.872;2023-04-24T02:01:20;13.00;62.50
17296;DHT22;8766;51.480;6.872;2023-04-24T02:03:47;13.00;62.50
17296;DHT22;8766;51.480;6.872;2023-04-24T02:06:14;13.00;62.40
17296;DHT22;8766;51.480;6.872;2023-04-24T02:08:41;13.00;62.30
17296;DHT22;8766;51.480;6.872;2023-04-24T02:11:09;13.00;62.40
17296;DHT22;8766;51.480;6.872;2023-04-24T02:13:36;13.00;62.30
17296;DHT22;8766;51.480;6.872;2023-04-24T02:16:04;13.00;62.40
17296;DHT22;8766;51.480;6.872;2023-04-24T02:18:31;13.00;62.40
17296;DHT22;8766;51.480;6.872;2023-04-24T02:20:58;13.00;62.40
17296;DHT22;8766;51.480;6.872;2023-04-24T02:23:25;13.00;62.30
17296;DHT22;8766;51.480;6.872;2023-04-24T02:25:52;13.00;62.30
17296;DHT22;8766;51.480;6.872;2023-04-24T02:28:19;13.00;62.30
17296;DHT22;8766;51.480;6.872;2023-04-24T02:30:46;13.00;62.30
17296;DHT22;8766;51.480;6.872;2023-04-24T02:33:15;13.00;62.30
17296;DHT22;8766;51.480;6.872;2023-04-24T02:35:41;13.00;62.30
17296;DHT22;8766;51.480;6.872;2023-04-24T02:38:08;13.00;62.90
17296;DHT22;8766;51.480;6.872;2023-04-24T02:40:35;13.00;62.20
17296;DHT22;8766;51.480;6.872;2023-04-24T02:43:02;13.00;62.30
17296;DHT22;8766;51.480;6.872;2023-04-24T02:45:29;12.90;62.20
17296;DHT22;8766;51.480;6.872;2023-04-24T02:47:56;12.90;62.20
17296;DHT22;8766;51.480;6.872;2023-04-24T02:50:24;12.90;62.20
17296;DHT22;8766;51.480;6.872;2023-04-24T02:52:51;12.90;62.20
17296;DHT22;8766;51.480;6.872;2023-04-24T02:55:18;12.90;62.20
17296;DHT22;8766;51.480;6.872;2023-04-24T02:57:45;12.90;62.30
17296;DHT22;8766;51.480;6.872;2023-04-24T03:00:13;12.90;62.30
17296;DHT22;8766;51.480;6.872;2023-04-24T03:02:40;12.90;62.20
17296;DHT22;8766;51.480;6.872;2023-04-24T03:05:07;12.90;62.20
17296;DHT22;8766;51.480;6.872;2023-04-24T03:07:36;12.90;62.30
17296;DHT22;8766;51.480;6.872;2023-04-24T03:10:04;12.90;62.30
17296;DHT22;8766;51.480;6.872;2023-04-24T03:12:31;12.90;62.30
17296;DHT22;8766;51.480;6.872;2023-04-24T03:14:58;12.90;62.20
17296;DHT22;8766;51.480;6.872;2023-04-24T03:17:25;12.90;62.30
17296;DHT22;8766;51.480;6.872;2023-04-24T03:19:52;12.80;62.30
17296;DHT22;8766;51.480;6.872;2023-04-24T03:22:18;12.80;62.30
17296;DHT22;8766;51.480;6.872;2023-04-24T03:24:47;12.80;62.30
17296;DHT22;8766;51.480;6.872;2023-04-24T03:27:14;12.80;62.30
17296;DHT22;8766;51.480;6.872;2023-04-24T03:29:40;12.80;62.30
17296;DHT22;8766;51.480;6.872;2023-04-24T03:32:07;12.80;62.30
17296;DHT22;8766;51.480;6.872;2023-04-24T03:34:34;12.80;62.30
17296;DHT22;8766;51.480;6.872;2023-04-24T03:37:01;12.80;62.30
17296;DHT22;8766;51.480;6.872;2023-04-24T03:39:28;12.80;62.30
17296;DHT22;8766;51.480;6.872;2023-04-24T03:41:56;12.80;62.30
17296;DHT22;8766;51.480;6.872;2023-04-24T03:44:23;12.80;62.30
17296;DHT22;8766;51.480;6.872;2023-04-24T03:46:50;12.80;62.30
17296;DHT22;8766;51.480;6.872;2023-04-24T03:49:17;12.70;62.30
17296;DHT22;8766;51.480;6.872;2023-04-24T03:51:44;12.80;62.40
17296;DHT22;8766;51.480;6.872;2023-04-24T03:54:10;12.70;62.30
17296;DHT22;8766;51.480;6.872;2023-04-24T03:56:37;12.70;62.40
17296;DHT22;8766;51.480;6.872;2023-04-24T03:59:06;12.70;62.40
17296;DHT22;8766;51.480;6.872;2023-04-24T04:01:33;12.70;62.40
17296;DHT22;8766;51.480;6.872;2023-04-24T04:04:02;12.70;62.30
17296;DHT22;8766;51.480;6.872;2023-04-24T04:06:29;12.70;62.30
17296;DHT22;8766;51.480;6.872;2023-04-24T04:08:57;12.70;62.30
17296;DHT22;8766;51.480;6.872;2023-04-24T04:11:24;12.70;62.30
17296;DHT22;8766;51.480;6.872;2023-04-24T04:13:52;12.70;62.20
17296;DHT22;8766;51.480;6.872;2023-04-24T04:16:20;12.70;62.30
17296;DHT22;8766;51.480;6.872;2023-04-24T04:18:47;12.70;62.30
17296;DHT22;8766;51.480;6.872;2023-04-24T04:21:14;12.70;62.30
17296;DHT22;8766;51.480;6.872;2023-04-24T04:23:40;12.70;62.30
17296;DHT22;8766;51.480;6.872;2023-04-24T04:26:07;12.70;62.30
17296;DHT22;8766;51.480;6.872;2023-04-24T04:28:34;12.70;62.30
17296;DHT22;8766;51.480;6.872;2023-04-24T04:31:01;12.70;62.30
17296;DHT22;8766;51.480;6.872;2023-04-24T04:33:29;12.70;62.30
17296;DHT22;8766;51.480;6.872;2023-04-24T04:35:56;12.60;62.30
17296;DHT22;8766;51.480;6.872;2023-04-24T04:38:24;12.60;62.30
17296;DHT22;8766;51.480;6.872;2023-04-24T04:40:52;12.60;62.30
17296;DHT22;8766;51.480;6.872;2023-04-24T04:43:19;12.60;62.30
17296;DHT22;8766;51.480;6.872;2023-04-24T04:45:47;12.60;62.30
17296;DHT22;8766;51.480;6.872;2023-04-24T04:48:13;12.60;62.30
17296;DHT22;8766;51.480;6.872;2023-04-24T04:50:44;12.60;62.30
17296;DHT22;8766;51.480;6.872;2023-04-24T04:53:11;12.60;62.30
17296;DHT22;8766;51.480;6.872;2023-04-24T04:55:38;12.60;62.40
17296;DHT22;8766;51.480;6.872;2023-04-24T04:58:05;12.60;62.30
17296;DHT22;8766;51.480;6.872;2023-04-24T05:00:32;12.60;62.40
17296;DHT22;8766;51.480;6.872;2023-04-24T05:03:01;12.60;62.30
17296;DHT22;8766;51.480;6.872;2023-04-24T05:05:28;12.60;62.30
17296;DHT22;8766;51.480;6.872;2023-04-24T05:07:56;12.50;62.30
17296;DHT22;8766;51.480;6.872;2023-04-24T05:10:23;12.60;62.40
17296;DHT22;8766;51.480;6.872;2023-04-24T05:12:50;12.60;62.40
17296;DHT22;8766;51.480;6.872;2023-04-24T05:15:17;12.60;62.30
17296;DHT22;8766;51.480;6.872;2023-04-24T05:17:44;12.60;62.30
17296;DHT22;8766;51.480;6.872;2023-04-24T05:20:11;12.50;62.40
17296;DHT22;8766;51.480;6.872;2023-04-24T05:22:38;12.50;62.40
17296;DHT22;8766;51.480;6.872;2023-04-24T05:25:07;12.50;62.40
17296;DHT22;8766;51.480;6.872;2023-04-24T05:27:34;12.50;62.50
17296;DHT22;8766;51.480;6.872;2023-04-24T05:30:01;12.50;62.50
17296;DHT22;8766;51.480;6.872;2023-04-24T05:32:27;12.40;62.50
17296;DHT22;8766;51.480;6.872;2023-04-24T05:34:54;12.40;62.60
17296;DHT22;8766;51.480;6.872;2023-04-24T05:37:22;12.40;62.70
17296;DHT22;8766;51.480;6.872;2023-04-24T05:39:48;12.30;62.70
17296;DHT22;8766;51.480;6.872;2023-04-24T05:42:17;12.30;62.70
17296;DHT22;8766;51.480;6.872;2023-04-24T05:44:43;12.30;62.70
17296;DHT22;8766;51.480;6.872;2023-04-24T05:47:10;12.30;62.80
17296;DHT22;8766;51.480;6.872;2023-04-24T05:49:37;12.30;62.80
17296;DHT22;8766;51.480;6.872;2023-04-24T05:52:04;12.30;62.90
17296;DHT22;8766;51.480;6.872;2023-04-24T05:54:34;12.30;62.80
17296;DHT22;8766;51.480;6.872;2023-04-24T05:57:01;12.30;62.80
17296;DHT22;8766;51.480;6.872;2023-04-24T05:59:35;12.30;62.80
17296;DHT22;8766;51.480;6.872;2023-04-24T06:02:01;12.30;62.80
17296;DHT22;8766;51.480;6.872;2023-04-24T06:04:28;12.30;62.70
17296;DHT22;8766;51.480;6.872;2023-04-24T06:06:55;12.30;62.70
17296;DHT22;8766;51.480;6.872;2023-04-24T06:09:22;12.30;62.60
17296;DHT22;8766;51.480;6.872;2023-04-24T06:11:49;12.40;62.60
17296;DHT22;8766;51.480;6.872;2023-04-24T06:14:18;12.40;62.60
17296;DHT22;8766;51.480;6.872;2023-04-24T06:16:46;12.40;62.60
17296;DHT22;8766;51.480;6.872;2023-04-24T06:19:13;12.40;62.50
17296;DHT22;8766;51.480;6.872;2023-04-24T06:21:40;12.40;62.50
17296;DHT22;8766;51.480;6.872;2023-04-24T06:24:07;12.40;62.50
17296;DHT22;8766;51.480;6.872;2023-04-24T06:26:34;12.40;62.60
17296;DHT22;8766;51.480;6.872;2023-04-24T06:29:00;12.40;62.60
17296;DHT22;8766;51.480;6.872;2023-04-24T06:31:27;12.40;62.60
17296;DHT22;8766;51.480;6.872;2023-04-24T06:33:56;12.40;62.60
17296;DHT22;8766;51.480;6.872;2023-04-24T06:36:23;12.40;62.60
17296;DHT22;8766;51.480;6.872;2023-04-24T06:38:50;12.40;62.50
17296;DHT22;8766;51.480;6.872;2023-04-24T06:41:17;12.40;62.50
17296;DHT22;8766;51.480;6.872;2023-04-24T06:43:43;12.40;62.60
17296;DHT22;8766;51.480;6.872;2023-04-24T06:46:10;12.40;62.60
17296;DHT22;8766;51.480;6.872;2023-04-24T06:48:38;12.40;62.50
17296;DHT22;8766;51.480;6.872;2023-04-24T06:51:06;12.40;62.50
17296;DHT22;8766;51.480;6.872;2023-04-24T06:53:33;12.40;62.50
17296;DHT22;8766;51.480;6.872;2023-04-24T06:56:00;12.40;62.60
17296;DHT22;8766;51.480;6.872;2023-04-24T06:58:27;12.30;62.60
17296;DHT22;8766;51.480;6.872;2023-04-24T07:00:54;12.30;62.60
17296;DHT22;8766;51.480;6.872;2023-04-24T07:03:21;12.30;62.70
17296;DHT22;8766;51.480;6.872;2023-04-24T07:05:48;12.30;62.70
17296;DHT22;8766;51.480;6.872;2023-04-24T07:08:16;12.30;62.70
17296;DHT22;8766;51.480;6.872;2023-04-24T07:10:44;12.30;62.70
17296;DHT22;8766;51.480;6.872;2023-04-24T07:13:11;12.30;62.70
17296;DHT22;8766;51.480;6.872;2023-04-24T07:15:38;12.30;62.60
17296;DHT22;8766;51.480;6.872;2023-04-24T07:18:06;12.30;62.60
17296;DHT22;8766;51.480;6.872;2023-04-24T07:20:33;12.30;62.70
17296;DHT22;8766;51.480;6.872;2023-04-24T07:23:00;12.40;62.70
17296;DHT22;8766;51.480;6.872;2023-04-24T07:25:28;12.40;62.50
17296;DHT22;8766;51.480;6.872;2023-04-24T07:27:57;12.40;62.40
17296;DHT22;8766;51.480;6.872;2023-04-24T07:30:23;12.50;62.40
17296;DHT22;8766;51.480;6.872;2023-04-24T07:32:50;12.50;62.40
17296;DHT22;8766;51.480;6.872;2023-04-24T07:35:17;12.50;62.40
17296;DHT22;8766;51.480;6.872;2023-04-24T07:37:45;12.50;62.30
17296;DHT22;8766;51.480;6.872;2023-04-24T07:40:12;12.50;62.10
17296;DHT22;8766;51.480;6.872;2023-04-24T07:42:40;12.60;62.00
17296;DHT22;8766;51.480;6.872;2023-04-24T07:45:07;12.70;61.90
17296;DHT22;8766;51.480;6.872;2023-04-24T07:47:34;12.70;61.80
17296;DHT22;8766;51.480;6.872;2023-04-24T07:50:03;12.70;61.70
17296;DHT22;8766;51.480;6.872;2023-04-24T07:52:30;12.70;61.80
17296;DHT22;8766;51.480;6.872;2023-04-24T07:54:57;12.70;61.80
17296;DHT22;8766;51.480;6.872;2023-04-24T07:57:26;12.70;61.80
17296;DHT22;8766;51.480;6.872;2023-04-24T07:59:54;12.70;61.90
17296;DHT22;8766;51.480;6.872;2023-04-24T08:02:21;12.50;62.10
17296;DHT22;8766;51.480;6.872;2023-04-24T08:04:51;12.40;62.40
17296;DHT22;8766;51.480;6.872;2023-04-24T08:07:19;12.40;62.60
17296;DHT22;8766;51.480;6.872;2023-04-24T08:09:46;12.30;62.70
17296;DHT22;8766;51.480;6.872;2023-04-24T08:12:13;12.30;62.90
17296;DHT22;8766;51.480;6.872;2023-04-24T08:14:40;12.20;62.90
17296;DHT22;8766;51.480;6.872;2023-04-24T08:17:08;12.30;63.00
17296;DHT22;8766;51.480;6.872;2023-04-24T08:19:35;12.20;62.90
17296;DHT22;8766;51.480;6.872;2023-04-24T08:22:02;12.20;62.90
17296;DHT22;8766;51.480;6.872;2023-04-24T08:24:29;12.20;63.00
17296;DHT22;8766;51.480;6.872;2023-04-24T08:26:56;12.20;63.00
17296;DHT22;8766;51.480;6.872;2023-04-24T08:29:23;12.20;63.00
17296;DHT22;8766;51.480;6.872;2023-04-24T08:31:50;12.20;63.00
17296;DHT22;8766;51.480;6.872;2023-04-24T08:34:21;12.10;63.10
17296;DHT22;8766;51.480;6.872;2023-04-24T08:36:48;12.10;63.20
17296;DHT22;8766;51.480;6.872;2023-04-24T08:39:15;12.10;63.30
17296;DHT22;8766;51.480;6.872;2023-04-24T08:41:44;12.10;63.20
17296;DHT22;8766;51.480;6.872;2023-04-24T08:44:12;12.20;63.20
17296;DHT22;8766;51.480;6.872;2023-04-24T08:46:42;12.20;63.10
17296;DHT22;8766;51.480;6.872;2023-04-24T08:49:11;12.20;62.90
17296;DHT22;8766;51.480;6.872;2023-04-24T08:51:40;12.30;62.90
17296;DHT22;8766;51.480;6.872;2023-04-24T08:54:07;12.40;62.70
17296;DHT22;8766;51.480;6.872;2023-04-24T08:56:34;12.50;62.50
17296;DHT22;8766;51.480;6.872;2023-04-24T08:59:05;12.60;62.20
17296;DHT22;8766;51.480;6.872;2023-04-24T09:01:33;12.70;62.50
17296;DHT22;8766;51.480;6.872;2023-04-24T09:07:45;12.90;61.60
17296;DHT22;8766;51.480;6.872;2023-04-24T09:10:16;12.80;61.60
17296;DHT22;8766;51.480;6.872;2023-04-24T09:12:44;12.70;61.70
17296;DHT22;8766;51.480;6.872;2023-04-24T09:15:11;12.60;61.90
17296;DHT22;8766;51.480;6.872;2023-04-24T09:17:38;12.60;62.30
17296;DHT22;8766;51.480;6.872;2023-04-24T09:20:06;12.50;62.40
17296;DHT22;8766;51.480;6.872;2023-04-24T09:22:34;12.50;62.60
17296;DHT22;8766;51.480;6.872;2023-04-24T09:25:04;12.40;62.80
17296;DHT22;8766;51.480;6.872;2023-04-24T09:27:32;12.40;62.90
17296;DHT22;8766;51.480;6.872;2023-04-24T09:30:00;12.30;62.90
17296;DHT22;8766;51.480;6.872;2023-04-24T09:32:27;12.30;63.00
17296;DHT22;8766;51.480;6.872;2023-04-24T09:35:09;12.30;63.00
17296;DHT22;8766;51.480;6.872;2023-04-24T09:37:37;12.20;63.10
17296;DHT22;8766;51.480;6.872;2023-04-24T09:40:10;12.20;63.20
17296;DHT22;8766;51.480;6.872;2023-04-24T09:42:38;12.20;63.40
17296;DHT22;8766;51.480;6.872;2023-04-24T09:45:08;12.10;63.30
17296;DHT22;8766;51.480;6.872;2023-04-24T09:47:36;12.20;63.30
17296;DHT22;8766;51.480;6.872;2023-04-24T09:50:09;12.10;63.20
17296;DHT22;8766;51.480;6.872;2023-04-24T09:52:40;12.20;63.30
17296;DHT22;8766;51.480;6.872;2023-04-24T09:55:13;12.10;63.20
17296;DHT22;8766;51.480;6.872;2023-04-24T09:57:48;12.10;63.20
17296;DHT22;8766;51.480;6.872;2023-04-24T10:00:18;12.10;63.30
17296;DHT22;8766;51.480;6.872;2023-04-24T10:02:50;12.10;63.30
17296;DHT22;8766;51.480;6.872;2023-04-24T10:05:17;12.10;63.30
17296;DHT22;8766;51.480;6.872;2023-04-24T10:07:45;12.10;63.30
17296;DHT22;8766;51.480;6.872;2023-04-24T10:10:13;12.10;63.30
17296;DHT22;8766;51.480;6.872;2023-04-24T10:12:40;12.10;63.40
17296;DHT22;8766;51.480;6.872;2023-04-24T10:15:10;12.00;63.40
17296;DHT22;8766;51.480;6.872;2023-04-24T10:17:38;12.10;63.40
17296;DHT22;8766;51.480;6.872;2023-04-24T10:20:06;12.10;63.30
17296;DHT22;8766;51.480;6.872;2023-04-24T10:22:34;12.10;63.20
17296;DHT22;8766;51.480;6.872;2023-04-24T10:25:04;12.20;63.10
17296;DHT22;8766;51.480;6.872;2023-04-24T10:27:34;12.30;63.00
17296;DHT22;8766;51.480;6.872;2023-04-24T10:30:02;12.30;62.80
17296;DHT22;8766;51.480;6.872;2023-04-24T10:32:29;12.30;62.80
17296;DHT22;8766;51.480;6.872;2023-04-24T10:34:56;12.30;62.80
17296;DHT22;8766;51.480;6.872;2023-04-24T10:37:24;12.30;62.80
17296;DHT22;8766;51.480;6.872;2023-04-24T10:39:52;12.30;62.80
17296;DHT22;8766;51.480;6.872;2023-04-24T10:42:21;12.30;62.70
17296;DHT22;8766;51.480;6.872;2023-04-24T10:44:50;12.40;62.80
17296;DHT22;8766;51.480;6.872;2023-04-24T10:47:18;12.40;62.70
17296;DHT22;8766;51.480;6.872;2023-04-24T10:49:45;12.40;62.70
17296;DHT22;8766;51.480;6.872;2023-04-24T10:52:12;12.50;62.60
17296;DHT22;8766;51.480;6.872;2023-04-24T10:54:44;12.60;62.50
17296;DHT22;8766;51.480;6.872;2023-04-24T10:57:27;12.60;62.30
17296;DHT22;8766;51.480;6.872;2023-04-24T11:00:18;12.70;62.20
17296;DHT22;8766;51.480;6.872;2023-04-24T11:02:46;12.80;62.00
17296;DHT22;8766;51.480;6.872;2023-04-24T11:05:15;12.80;61.90
17296;DHT22;8766;51.480;6.872;2023-04-24T11:08:11;12.90;61.90
17296;DHT22;8766;51.480;6.872;2023-04-24T11:10:40;12.90;61.70
17296;DHT22;8766;51.480;6.872;2023-04-24T11:13:07;13.10;61.50
17296;DHT22;8766;51.480;6.872;2023-04-24T11:15:36;13.40;60.90
17296;DHT22;8766;51.480;6.872;2023-04-24T11:18:03;13.80;60.10
17296;DHT22;8766;51.480;6.872;2023-04-24T11:20:30;14.00;59.60
17296;DHT22;8766;51.480;6.872;2023-04-24T11:23:03;14.20;59.30
17296;DHT22;8766;51.480;6.872;2023-04-24T11:25:32;14.20;59.40
17296;DHT22;8766;51.480;6.872;2023-04-24T11:28:04;14.10;59.50
17296;DHT22;8766;51.480;6.872;2023-04-24T11:30:32;13.90;59.80
17296;DHT22;8766;51.480;6.872;2023-04-24T11:33:04;13.70;60.20
17296;DHT22;8766;51.480;6.872;2023-04-24T11:35:36;13.50;60.80
17296;DHT22;8766;51.480;6.872;2023-04-24T11:38:06;13.30;61.30
17296;DHT22;8766;51.480;6.872;2023-04-24T11:40:34;13.10;61.70
17296;DHT22;8766;51.480;6.872;2023-04-24T11:43:01;13.00;62.10
17296;DHT22;8766;51.480;6.872;2023-04-24T11:45:29;12.80;62.40
17296;DHT22;8766;51.480;6.872;2023-04-24T11:47:56;12.70;62.70
17296;DHT22;8766;51.480;6.872;2023-04-24T11:50:26;12.70;62.80
17296;DHT22;8766;51.480;6.872;2023-04-24T11:52:55;12.80;62.80
17296;DHT22;8766;51.480;6.872;2023-04-24T11:55:26;12.90;62.50
17296;DHT22;8766;51.480;6.872;2023-04-24T11:57:55;13.10;62.20
17296;DHT22;8766;51.480;6.872;2023-04-24T12:00:26;13.20;61.70
17296;DHT22;8766;51.480;6.872;2023-04-24T12:03:04;13.40;61.30
17296;DHT22;8766;51.480;6.872;2023-04-24T12:05:33;13.50;60.90
17296;DHT22;8766;51.480;6.872;2023-04-24T12:08:01;13.60;60.60
17296;DHT22;8766;51.480;6.872;2023-04-24T12:10:29;13.60;60.50
17296;DHT22;8766;51.480;6.872;2023-04-24T12:12:57;13.70;60.50
17296;DHT22;8766;51.480;6.872;2023-04-24T12:15:24;13.80;60.40
17296;DHT22;8766;51.480;6.872;2023-04-24T12:17:53;13.70;60.30
17296;DHT22;8766;51.480;6.872;2023-04-24T12:20:24;13.70;60.40
17296;DHT22;8766;51.480;6.872;2023-04-24T12:22:54;13.60;60.70
17296;DHT22;8766;51.480;6.872;2023-04-24T12:25:22;13.50;60.90
17296;DHT22;8766;51.480;6.872;2023-04-24T12:27:54;13.30;61.20
17296;DHT22;8766;51.480;6.872;2023-04-24T12:30:26;13.20;61.60
17296;DHT22;8766;51.480;6.872;2023-04-24T12:32:53;13.10;61.80
17296;DHT22;8766;51.480;6.872;2023-04-24T12:35:22;12.90;61.90
17296;DHT22;8766;51.480;6.872;2023-04-24T12:37:49;12.90;62.10
17296;DHT22;8766;51.480;6.872;2023-04-24T12:40:19;12.90;62.10
17296;DHT22;8766;51.480;6.872;2023-04-24T12:42:47;13.10;61.90
17296;DHT22;8766;51.480;6.872;2023-04-24T12:45:16;13.20;61.50
17296;DHT22;8766;51.480;6.872;2023-04-24T12:47:44;13.30;61.20
17296;DHT22;8766;51.480;6.872;2023-04-24T12:50:12;13.40;61.00
17296;DHT22;8766;51.480;6.872;2023-04-24T12:52:39;13.50;60.70
17296;DHT22;8766;51.480;6.872;2023-04-24T12:55:07;13.70;60.50
17296;DHT22;8766;51.480;6.872;2023-04-24T12:57:36;13.80;60.10
17296;DHT22;8766;51.480;6.872;2023-04-24T13:00:05;14.00;59.80
17296;DHT22;8766;51.480;6.872;2023-04-24T13:02:33;14.10;59.60
17296;DHT22;8766;51.480;6.872;2023-04-24T13:05:00;14.20;59.50
17296;DHT22;8766;51.480;6.872;2023-04-24T13:07:28;14.20;59.90
17296;DHT22;8766;51.480;6.872;2023-04-24T13:09:56;14.30;59.30
17296;DHT22;8766;51.480;6.872;2023-04-24T13:12:23;14.30;59.30
17296;DHT22;8766;51.480;6.872;2023-04-24T13:14:52;14.30;59.20
17296;DHT22;8766;51.480;6.872;2023-04-24T13:17:19;14.20;59.30
17296;DHT22;8766;51.480;6.872;2023-04-24T13:19:46;14.10;59.50
17296;DHT22;8766;51.480;6.872;2023-04-24T13:22:13;14.10;59.70
17296;DHT22;8766;51.480;6.872;2023-04-24T13:24:40;14.00;59.70
17296;DHT22;8766;51.480;6.872;2023-04-24T13:27:08;14.00;59.70
17296;DHT22;8766;51.480;6.872;2023-04-24T13:29:35;14.00;59.80
17296;DHT22;8766;51.480;6.872;2023-04-24T13:32:03;14.00;59.70
17296;DHT22;8766;51.480;6.872;2023-04-24T13:34:30;14.00;59.60
17296;DHT22;8766;51.480;6.872;2023-04-24T13:36:58;14.00;59.60
17296;DHT22;8766;51.480;6.872;2023-04-24T13:39:25;14.00;59.70
17296;DHT22;8766;51.480;6.872;2023-04-24T13:41:53;13.90;59.90
17296;DHT22;8766;51.480;6.872;2023-04-24T13:44:20;13.70;60.00
17296;DHT22;8766;51.480;6.872;2023-04-24T13:46:49;13.70;60.30
17296;DHT22;8766;51.480;6.872;2023-04-24T13:49:18;13.70;60.30
17296;DHT22;8766;51.480;6.872;2023-04-24T13:51:45;13.70;60.30
17296;DHT22;8766;51.480;6.872;2023-04-24T13:54:12;13.90;60.00
17296;DHT22;8766;51.480;6.872;2023-04-24T13:56:40;14.00;59.80
17296;DHT22;8766;51.480;6.872;2023-04-24T13:59:07;14.10;59.50
17296;DHT22;8766;51.480;6.872;2023-04-24T14:01:34;14.20;59.20
17296;DHT22;8766;51.480;6.872;2023-04-24T14:04:01;14.30;59.00
17296;DHT22;8766;51.480;6.872;2023-04-24T14:06:29;14.40;58.90
17296;DHT22;8766;51.480;6.872;2023-04-24T14:08:56;14.50;58.80
17296;DHT22;8766;51.480;6.872;2023-04-24T14:11:23;14.50;58.70
17296;DHT22;8766;51.480;6.872;2023-04-24T14:13:50;14.50;58.80
17296;DHT22;8766;51.480;6.872;2023-04-24T14:16:17;14.40;58.90
17296;DHT22;8766;51.480;6.872;2023-04-24T14:18:44;14.30;59.00
17296;DHT22;8766;51.480;6.872;2023-04-24T14:21:11;14.20;59.20
17296;DHT22;8766;51.480;6.872;2023-04-24T14:23:41;14.20;59.30
17296;DHT22;8766;51.480;6.872;2023-04-24T14:26:09;14.20;59.50
17296;DHT22;8766;51.480;6.872;2023-04-24T14:28:36;14.10;59.40
17296;DHT22;8766;51.480;6.872;2023-04-24T14:31:04;14.00;59.50
17296;DHT22;8766;51.480;6.872;2023-04-24T14:33:30;14.00;59.70
17296;DHT22;8766;51.480;6.872;2023-04-24T14:35:57;13.80;59.90
17296;DHT22;8766;51.480;6.872;2023-04-24T14:38:24;13.60;60.10
17296;DHT22;8766;51.480;6.872;2023-04-24T14:40:52;13.50;60.40
17296;DHT22;8766;51.480;6.872;2023-04-24T14:43:19;13.40;60.60
17296;DHT22;8766;51.480;6.872;2023-04-24T14:45:46;13.30;60.80
17296;DHT22;8766;51.480;6.872;2023-04-24T14:48:13;13.30;61.00
17296;DHT22;8766;51.480;6.872;2023-04-24T14:50:42;13.20;61.00
17296;DHT22;8766;51.480;6.872;2023-04-24T14:53:08;13.10;61.20
17296;DHT22;8766;51.480;6.872;2023-04-24T14:55:35;13.10;61.20
17296;DHT22;8766;51.480;6.872;2023-04-24T14:58:04;13.10;61.30
17296;DHT22;8766;51.480;6.872;2023-04-24T15:00:30;13.10;61.20
17296;DHT22;8766;51.480;6.872;2023-04-24T15:02:58;13.30;61.00
17296;DHT22;8766;51.480;6.872;2023-04-24T15:05:25;13.40;60.70
17296;DHT22;8766;51.480;6.872;2023-04-24T15:07:52;13.50;60.30
17296;DHT22;8766;51.480;6.872;2023-04-24T15:10:19;13.60;60.00
17296;DHT22;8766;51.480;6.872;2023-04-24T15:12:48;13.70;59.90
17296;DHT22;8766;51.480;6.872;2023-04-24T15:15:17;13.80;59.70
17296;DHT22;8766;51.480;6.872;2023-04-24T15:17:44;13.80;59.60
17296;DHT22;8766;51.480;6.872;2023-04-24T15:20:10;14.00;59.40
17296;DHT22;8766;51.480;6.872;2023-04-24T15:22:37;14.10;59.20
17296;DHT22;8766;51.480;6.872;2023-04-24T15:25:05;14.30;58.90
17296;DHT22;8766;51.480;6.872;2023-04-24T15:27:42;14.40;58.70
17296;DHT22;8766;51.480;6.872;2023-04-24T15:30:10;14.40;58.60
17296;DHT22;8766;51.480;6.872;2023-04-24T15:32:39;14.40;58.70
17296;DHT22;8766;51.480;6.872;2023-04-24T15:35:06;14.30;58.80
17296;DHT22;8766;51.480;6.872;2023-04-24T15:37:33;14.30;58.80
17296;DHT22;8766;51.480;6.872;2023-04-24T15:40:00;14.50;58.60
17296;DHT22;8766;51.480;6.872;2023-04-24T15:42:29;14.70;58.30
17296;DHT22;8766;51.480;6.872;2023-04-24T15:44:56;14.80;58.00
17296;DHT22;8766;51.480;6.872;2023-04-24T15:47:24;14.80;57.90
17296;DHT22;8766;51.480;6.872;2023-04-24T15:49:53;14.70;58.00
17296;DHT22;8766;51.480;6.872;2023-04-24T15:52:19;14.60;58.20